Time;durP1;ratioP1;P1;durP2;ratioP2;P2;SDS_P1;SDS_P2;PMS_P1;PMS_P2;Temp;Humidity;BMP_temperature;BMP_pressure;BME280_temperature;BME280_humidity;BME280_pressure;Samples;Min_cycle;Max_cycle;Signal;HPM_P1;HPM_P2
2023/10/06 00:01:34;;;;;;;5.80;2.70;;;;;;;13.05;100.00;100906.77;668299;1263;139771;-77
2023/10/06 00:16:41;;;;;;;17.80;10.60;;;;;;;12.90;100.00;100921.41;668222;1262;139288;-77
2023/10/06 00:31:48;;;;;;;218.80;93.10;;;;;;;12.83;100.00;100933.83;668254;1258;140111;-77
2023/10/06 00:46:52;;;;;;;18.60;11.20;;;;;;;12.61;100.00;100939.72;668527;1273;141253;-78
2023/10/06 01:01:56;;;;;;;78.50;43.20;;;;;;;12.56;100.00;100954.41;670178;1263;139337;-76
2023/10/06 01:17:16;;;;;;;20.10;11.00;;;;;;;12.55;100.00;100964.34;667967;1262;139847;-76
2023/10/06 01:32:20;;;;;;;14.60;6.30;;;;;;;12.42;100.00;100973.84;668347;1263;139390;-77
2023/10/06 01:47:29;;;;;;;11.30;5.00;;;;;;;12.29;100.00;100981.73;668738;1262;139294;-76
2023/10/06 02:02:32;;;;;;;15.20;6.70;;;;;;;12.19;100.00;100982.94;668138;1263;139657;-76
2023/10/06 02:17:37;;;;;;;5.90;2.70;;;;;;;12.08;100.00;100988.42;668094;1262;139109;-77
2023/10/06 02:32:43;;;;;;;7.80;3.60;;;;;;;12.06;100.00;100987.71;668399;1260;140609;-77
2023/10/06 02:47:47;;;;;;;6.10;3.90;;;;;;;12.02;100.00;101001.66;668705;1262;139447;-77
2023/10/06 03:02:56;;;;;;;11.70;5.10;;;;;;;11.88;100.00;101010.00;668025;1262;139171;-77
2023/10/06 03:18:00;;;;;;;10.70;4.70;;;;;;;11.77;100.00;101023.34;668234;1260;139249;-77
2023/10/06 03:33:04;;;;;;;12.50;4.20;;;;;;;11.84;100.00;101041.52;668510;1262;139451;-77
2023/10/06 03:48:13;;;;;;;14.80;6.70;;;;;;;11.58;100.00;101042.05;668433;1263;139505;-77
2023/10/06 04:03:18;;;;;;;32.00;18.20;;;;;;;11.47;100.00;101047.94;668410;1263;138838;-77
2023/10/06 04:18:24;;;;;;;8.30;5.70;;;;;;;11.57;100.00;101046.13;668640;1264;140272;-77
2023/10/06 04:33:30;;;;;;;9.30;4.70;;;;;;;11.63;100.00;101055.87;668894;1262;139761;-78
2023/10/06 04:48:38;;;;;;;12.70;5.80;;;;;;;11.60;100.00;101059.52;667969;1263;139015;-77
2023/10/06 05:03:43;;;;;;;12.30;6.10;;;;;;;11.70;100.00;101067.36;669341;1263;140341;-78
2023/10/06 05:18:48;;;;;;;19.00;10.20;;;;;;;11.95;100.00;101078.65;668519;1278;139940;-78
2023/10/06 05:33:51;;;;;;;16.50;9.30;;;;;;;12.10;100.00;101092.77;667956;1263;140157;-78
2023/10/06 05:48:59;;;;;;;50.10;26.20;;;;;;;12.26;100.00;101099.48;668061;1263;139415;-79
2023/10/06 06:04:09;;;;;;;25.90;12.70;;;;;;;12.43;100.00;101096.20;667735;1263;139766;-78
2023/10/06 06:19:13;;;;;;;21.20;8.80;;;;;;;12.44;100.00;101100.52;668916;1264;140530;-78
2023/10/06 06:34:17;;;;;;;21.30;11.30;;;;;;;12.61;100.00;101109.97;672802;1268;139425;-78
2023/10/06 06:49:20;;;;;;;27.90;15.00;;;;;;;12.63;100.00;101126.46;681819;1262;140657;-78
2023/10/06 07:04:26;;;;;;;29.30;15.90;;;;;;;12.98;100.00;101124.80;671543;1264;139362;-78
2023/10/06 07:19:29;;;;;;;33.00;17.90;;;;;;;13.35;100.00;101136.91;668473;1263;139564;-78
2023/10/06 07:34:32;;;;;;;33.60;16.30;;;;;;;13.49;100.00;101132.23;670221;1273;140600;-78
2023/10/06 07:49:36;;;;;;;50.50;20.00;;;;;;;14.10;100.00;101130.21;672763;1262;140684;-78
2023/10/06 08:04:39;;;;;;;39.80;19.40;;;;;;;14.57;100.00;101128.08;675363;1263;140788;-78
2023/10/06 08:19:42;;;;;;;36.70;17.30;;;;;;;14.85;100.00;101114.59;669113;1263;140280;-78
2023/10/06 08:34:46;;;;;;;31.60;14.80;;;;;;;15.19;100.00;101102.70;671117;1261;140435;-77
2023/10/06 08:49:51;;;;;;;26.80;13.30;;;;;;;15.49;100.00;101096.09;676570;1260;140614;-78
2023/10/06 09:04:54;;;;;;;21.90;13.20;;;;;;;16.56;100.00;101098.55;672864;1260;139929;-79
2023/10/06 09:19:59;;;;;;;23.00;12.00;;;;;;;16.72;99.23;101098.70;673474;1260;140901;-78
2023/10/06 09:35:22;;;;;;;14.40;9.70;;;;;;;17.28;96.68;101086.27;672730;1259;139967;-78
2023/10/06 09:50:26;;;;;;;16.60;11.50;;;;;;;18.54;90.43;101064.40;672472;1264;139815;-76
2023/10/06 10:05:31;;;;;;;20.10;10.70;;;;;;;18.35;86.05;101048.81;671607;1264;139819;-78
2023/10/06 10:20:36;;;;;;;57.00;24.90;;;;;;;18.77;82.61;101034.32;669544;1257;140067;-79
2023/10/06 10:36:18;;;;;;;18.30;7.60;;;;;;;18.72;80.57;101020.69;670498;1264;139658;-79
2023/10/06 10:51:23;;;;;;;21.70;11.30;;;;;;;17.84;83.25;101014.54;674999;1259;141285;-78
2023/10/06 11:06:27;;;;;;;26.00;12.60;;;;;;;17.66;84.68;100999.73;669963;1263;140305;-78
2023/10/06 11:21:31;;;;;;;20.80;11.00;;;;;;;17.51;84.10;100966.56;677195;1259;139614;-78
2023/10/06 11:36:34;;;;;;;18.20;10.30;;;;;;;17.41;84.01;100954.52;671212;1258;140092;-79
2023/10/06 11:51:39;;;;;;;18.00;9.60;;;;;;;17.21;84.31;100930.48;679139;1261;140337;-79
2023/10/06 12:06:43;;;;;;;22.10;9.50;;;;;;;17.02;86.59;100913.73;673723;1275;141249;-78
2023/10/06 12:21:46;;;;;;;20.70;8.40;;;;;;;17.29;86.79;100878.92;671128;1260;139591;-79
2023/10/06 12:36:51;;;;;;;19.00;9.30;;;;;;;17.20;87.02;100881.77;671676;1262;139120;-78
2023/10/06 12:51:55;;;;;;;17.50;9.10;;;;;;;17.16;87.27;100860.70;669990;1265;139923;-78
2023/10/06 13:06:59;;;;;;;18.60;8.40;;;;;;;17.07;87.62;100845.75;673800;1266;140611;-78
2023/10/06 13:22:02;;;;;;;20.50;10.00;;;;;;;17.15;88.74;100809.01;670101;1262;139333;-79
2023/10/06 13:37:07;;;;;;;21.10;10.10;;;;;;;17.27;89.90;100765.15;671113;1266;140695;-79
2023/10/06 13:52:10;;;;;;;21.00;11.00;;;;;;;17.42;90.32;100722.30;673372;1262;139733;-78
2023/10/06 14:07:13;;;;;;;19.40;11.40;;;;;;;17.86;89.41;100681.51;670628;1262;139919;-79
2023/10/06 14:22:21;;;;;;;18.10;10.60;;;;;;;17.84;90.34;100656.92;673238;1262;140386;-78
2023/10/06 14:37:42;;;;;;;18.90;11.80;;;;;;;17.84;91.27;100651.90;675183;1262;140348;-78
2023/10/06 14:52:46;;;;;;;22.30;12.40;;;;;;;17.74;92.43;100615.95;672668;1260;139634;-79
2023/10/06 15:07:49;;;;;;;17.70;10.40;;;;;;;17.58;94.62;100591.30;670747;1262;140370;-78
2023/10/06 15:22:53;;;;;;;133.10;45.10;;;;;;;17.85;94.81;100573.33;670111;1263;140559;-79
2023/10/06 15:37:56;;;;;;;71.20;31.40;;;;;;;17.96;94.12;100538.02;669129;1273;140495;-78
2023/10/06 15:53:00;;;;;;;24.90;15.50;;;;;;;17.86;95.45;100507.57;669591;1260;139741;-79
2023/10/06 16:08:05;;;;;;;20.00;12.90;;;;;;;17.83;95.85;100485.13;670944;1262;139726;-77
2023/10/06 16:23:13;;;;;;;33.10;17.70;;;;;;;17.80;96.24;100463.06;669083;1264;139719;-78
2023/10/06 16:38:16;;;;;;;22.10;13.60;;;;;;;17.75;96.57;100420.05;669015;1262;139468;-78
2023/10/06 16:53:20;;;;;;;28.30;19.40;;;;;;;17.81;96.06;100401.56;668846;1263;140562;-79
2023/10/06 17:08:25;;;;;;;19.80;13.20;;;;;;;17.79;96.49;100390.64;670495;1262;139968;-78
2023/10/06 17:23:29;;;;;;;18.90;12.60;;;;;;;17.82;96.78;100364.27;670901;1263;139557;-79
2023/10/06 17:38:33;;;;;;;19.00;11.50;;;;;;;18.03;96.57;100354.70;668292;1266;140415;-79
2023/10/06 17:53:36;;;;;;;25.40;13.80;;;;;;;17.80;98.96;100371.23;668278;1271;139491;-78
2023/10/06 18:08:41;;;;;;;19.30;11.40;;;;;;;17.26;100.00;100353.62;668134;1262;139651;-78
2023/10/06 18:23:45;;;;;;;16.00;10.20;;;;;;;16.77;100.00;100332.08;670146;1262;140268;-78
2023/10/06 18:38:55;;;;;;;17.80;9.90;;;;;;;16.70;100.00;100287.70;668535;1262;141281;-78
2023/10/06 18:53:59;;;;;;;18.20;12.50;;;;;;;16.53;100.00;100241.59;667751;1275;140131;-78
2023/10/06 19:09:03;;;;;;;18.90;11.60;;;;;;;16.58;100.00;100218.75;667988;1262;140309;-78
2023/10/06 19:24:08;;;;;;;17.20;10.30;;;;;;;16.66;100.00;100203.73;668854;1263;140712;-78
2023/10/06 19:39:14;;;;;;;16.50;9.50;;;;;;;16.61;100.00;100182.41;669297;1265;141188;-79
2023/10/06 19:54:17;;;;;;;18.70;11.20;;;;;;;16.66;100.00;100160.30;668329;1262;140403;-78
2023/10/06 20:09:23;;;;;;;18.40;9.60;;;;;;;16.64;100.00;100149.30;667991;1265;139432;-78
2023/10/06 20:24:27;;;;;;;11.50;6.70;;;;;;;16.46;100.00;100126.46;667806;1265;140464;-79
2023/10/06 20:39:30;;;;;;;9.70;6.00;;;;;;;16.37;100.00;100106.52;667982;1263;140266;-79
2023/10/06 20:54:34;;;;;;;9.90;5.20;;;;;;;16.27;100.00;100083.03;668619;1275;139958;-78
2023/10/06 21:09:37;;;;;;;10.20;5.90;;;;;;;16.02;100.00;100048.44;668394;1258;139593;-78
2023/10/06 21:24:40;;;;;;;12.30;8.00;;;;;;;16.17;100.00;100022.80;668348;1264;140943;-79
2023/10/06 21:39:46;;;;;;;16.60;10.00;;;;;;;16.19;100.00;99993.29;669176;1259;140016;-78
2023/10/06 21:54:50;;;;;;;15.80;9.00;;;;;;;16.37;100.00;99960.58;669138;1274;140525;-78
2023/10/06 22:09:53;;;;;;;14.30;9.20;;;;;;;16.44;100.00;99929.13;669843;1263;139267;-79
2023/10/06 22:24:57;;;;;;;12.50;5.80;;;;;;;16.36;100.00;99876.45;668101;1266;139692;-79
2023/10/06 22:40:00;;;;;;;26.20;16.00;;;;;;;16.20;100.00;99844.30;669607;1263;157993;-79
2023/10/06 22:55:05;;;;;;;15.00;10.00;;;;;;;16.17;100.00;99822.04;667849;1262;140409;-79
2023/10/06 23:10:14;;;;;;;13.00;8.00;;;;;;;16.34;100.00;99804.38;669165;1273;139953;-79
2023/10/06 23:25:19;;;;;;;10.00;5.90;;;;;;;16.39;100.00;99778.50;667850;1267;140888;-79
2023/10/06 23:40:25;;;;;;;10.00;6.30;;;;;;;16.44;100.00;99747.69;667886;1261;139867;-79
2023/10/06 23:55:31;;;;;;;10.40;5.30;;;;;;;16.70;100.00;99717.44;668929;1266;139414;-79
